Terminal Aerodrome Forecast
Issued by NWS

Home | Current Version | Previous Version | Text Only | Print | Product List | Glossary On
Versions: 1 2 3 4 5 6 7 8 9 10 11 12 13 14 15 16 17 18 19 20 21 22 23 24 25 26
000
FTUS45 KLKN 012300
TAFWMC
TAF
KWMC 012320Z 0200/0224 VRB05KT P6SM VCTS SCT100CB
     FM020400 VRB04KT P6SM SCT120
     FM022000 24007KT P6SM VCTS SCT100CB=

USA.gov is the U.S. government's official web portal to all federal, state and local government web resources and services.